sensor_id;sensor_type;location;lat;lon;timestamp;P1;durP1;ratioP1;P2;durP2;ratioP2
76057;SDS011;64755;45.590;5.286;2022-11-03T00:00:03;8.25;;;7.00;;
76057;SDS011;64755;45.590;5.286;2022-11-03T00:02:29;8.00;;;8.00;;
76057;SDS011;64755;45.590;5.286;2022-11-03T00:04:54;9.75;;;9.75;;
76057;SDS011;64755;45.590;5.286;2022-11-03T00:07:20;10.75;;;9.75;;
76057;SDS011;64755;45.590;5.286;2022-11-03T00:09:46;12.50;;;10.75;;
76057;SDS011;64755;45.590;5.286;2022-11-03T00:12:12;9.25;;;9.25;;
76057;SDS011;64755;45.590;5.286;2022-11-03T00:14:38;13.00;;;12.00;;
76057;SDS011;64755;45.590;5.286;2022-11-03T00:17:03;9.75;;;9.00;;
76057;SDS011;64755;45.590;5.286;2022-11-03T00:19:29;10.25;;;10.25;;
76057;SDS011;64755;45.590;5.286;2022-11-03T00:21:54;13.25;;;12.00;;
76057;SDS011;64755;45.590;5.286;2022-11-03T00:24:22;10.75;;;9.75;;
76057;SDS011;64755;45.590;5.286;2022-11-03T00:26:47;10.25;;;8.25;;
76057;SDS011;64755;45.590;5.286;2022-11-03T00:29:13;9.25;;;8.25;;
76057;SDS011;64755;45.590;5.286;2022-11-03T00:31:40;9.50;;;9.50;;
76057;SDS011;64755;45.590;5.286;2022-11-03T00:34:07;10.25;;;10.25;;
76057;SDS011;64755;45.590;5.286;2022-11-03T00:36:35;9.00;;;9.00;;
76057;SDS011;64755;45.590;5.286;2022-11-03T00:39:02;13.50;;;11.50;;
76057;SDS011;64755;45.590;5.286;2022-11-03T00:41:29;9.50;;;7.50;;
76057;SDS011;64755;45.590;5.286;2022-11-03T00:43:54;10.25;;;10.25;;
76057;SDS011;64755;45.590;5.286;2022-11-03T00:46:21;10.00;;;10.00;;
76057;SDS011;64755;45.590;5.286;2022-11-03T00:48:47;9.00;;;9.00;;
76057;SDS011;64755;45.590;5.286;2022-11-03T00:51:20;7.00;;;7.00;;
76057;SDS011;64755;45.590;5.286;2022-11-03T00:53:49;9.75;;;8.25;;
76057;SDS011;64755;45.590;5.286;2022-11-03T00:56:16;9.00;;;7.75;;
76057;SDS011;64755;45.590;5.286;2022-11-03T00:58:44;7.50;;;7.50;;
76057;SDS011;64755;45.590;5.286;2022-11-03T01:01:11;9.00;;;9.00;;
76057;SDS011;64755;45.590;5.286;2022-11-03T01:03:40;12.75;;;10.50;;
76057;SDS011;64755;45.590;5.286;2022-11-03T01:06:27;12.00;;;10.25;;
76057;SDS011;64755;45.590;5.286;2022-11-03T01:09:11;10.25;;;10.25;;
76057;SDS011;64755;45.590;5.286;2022-11-03T01:11:36;8.75;;;8.75;;
76057;SDS011;64755;45.590;5.286;2022-11-03T01:14:08;12.50;;;10.00;;
76057;SDS011;64755;45.590;5.286;2022-11-03T01:16:38;9.25;;;8.00;;
76057;SDS011;64755;45.590;5.286;2022-11-03T01:19:04;8.00;;;8.00;;
76057;SDS011;64755;45.590;5.286;2022-11-03T01:21:30;9.25;;;8.50;;
76057;SDS011;64755;45.590;5.286;2022-11-03T01:23:55;12.50;;;9.25;;
76057;SDS011;64755;45.590;5.286;2022-11-03T01:26:21;8.25;;;6.75;;
76057;SDS011;64755;45.590;5.286;2022-11-03T01:28:46;9.00;;;9.00;;
76057;SDS011;64755;45.590;5.286;2022-11-03T01:31:19;12.00;;;9.00;;
76057;SDS011;64755;45.590;5.286;2022-11-03T01:33:48;8.75;;;8.75;;
76057;SDS011;64755;45.590;5.286;2022-11-03T01:36:18;12.00;;;8.25;;
76057;SDS011;64755;45.590;5.286;2022-11-03T01:38:44;10.00;;;7.50;;
76057;SDS011;64755;45.590;5.286;2022-11-03T01:41:12;8.25;;;8.25;;
76057;SDS011;64755;45.590;5.286;2022-11-03T01:43:42;8.00;;;4.50;;
76057;SDS011;64755;45.590;5.286;2022-11-03T01:46:23;9.00;;;8.25;;
76057;SDS011;64755;45.590;5.286;2022-11-03T01:51:26;7.00;;;7.00;;
76057;SDS011;64755;45.590;5.286;2022-11-03T01:53:57;7.75;;;7.75;;
76057;SDS011;64755;45.590;5.286;2022-11-03T01:56:28;7.00;;;7.00;;
76057;SDS011;64755;45.590;5.286;2022-11-03T01:58:56;6.00;;;5.50;;
76057;SDS011;64755;45.590;5.286;2022-11-03T02:01:22;9.50;;;9.50;;
76057;SDS011;64755;45.590;5.286;2022-11-03T02:03:53;7.00;;;7.00;;
76057;SDS011;64755;45.590;5.286;2022-11-03T02:06:24;6.50;;;6.00;;
76057;SDS011;64755;45.590;5.286;2022-11-03T02:08:59;8.50;;;6.00;;
76057;SDS011;64755;45.590;5.286;2022-11-03T02:11:29;8.75;;;7.25;;
76057;SDS011;64755;45.590;5.286;2022-11-03T02:14:14;8.00;;;7.00;;
76057;SDS011;64755;45.590;5.286;2022-11-03T02:16:41;8.00;;;7.00;;
76057;SDS011;64755;45.590;5.286;2022-11-03T02:19:55;9.50;;;8.00;;
76057;SDS011;64755;45.590;5.286;2022-11-03T02:27:24;7.25;;;7.25;;
76057;SDS011;64755;45.590;5.286;2022-11-03T02:29:49;11.25;;;8.25;;
76057;SDS011;64755;45.590;5.286;2022-11-03T02:32:18;6.75;;;6.75;;
76057;SDS011;64755;45.590;5.286;2022-11-03T02:34:48;7.00;;;7.00;;
76057;SDS011;64755;45.590;5.286;2022-11-03T02:37:22;9.50;;;7.50;;
76057;SDS011;64755;45.590;5.286;2022-11-03T02:39:56;7.25;;;7.00;;
76057;SDS011;64755;45.590;5.286;2022-11-03T02:42:26;9.75;;;8.00;;
76057;SDS011;64755;45.590;5.286;2022-11-03T02:44:52;7.00;;;6.25;;
76057;SDS011;64755;45.590;5.286;2022-11-03T02:47:23;7.25;;;7.25;;
76057;SDS011;64755;45.590;5.286;2022-11-03T02:49:52;6.00;;;4.00;;
76057;SDS011;64755;45.590;5.286;2022-11-03T02:55:14;6.50;;;6.50;;
76057;SDS011;64755;45.590;5.286;2022-11-03T02:58:12;8.75;;;7.50;;
76057;SDS011;64755;45.590;5.286;2022-11-03T03:03:20;6.25;;;6.25;;
76057;SDS011;64755;45.590;5.286;2022-11-03T03:05:49;5.50;;;5.50;;
76057;SDS011;64755;45.590;5.286;2022-11-03T03:08:18;8.25;;;7.00;;
76057;SDS011;64755;45.590;5.286;2022-11-03T03:10:47;7.00;;;5.50;;
76057;SDS011;64755;45.590;5.286;2022-11-03T03:13:14;5.50;;;5.50;;
76057;SDS011;64755;45.590;5.286;2022-11-03T03:18:20;9.75;;;7.25;;
76057;SDS011;64755;45.590;5.286;2022-11-03T03:20:51;6.00;;;6.00;;
76057;SDS011;64755;45.590;5.286;2022-11-03T03:23:23;6.00;;;6.00;;
76057;SDS011;64755;45.590;5.286;2022-11-03T03:28:26;7.00;;;7.00;;
76057;SDS011;64755;45.590;5.286;2022-11-03T03:30:54;7.00;;;6.00;;
76057;SDS011;64755;45.590;5.286;2022-11-03T03:33:23;7.00;;;7.00;;
76057;SDS011;64755;45.590;5.286;2022-11-03T03:35:52;5.00;;;5.00;;
76057;SDS011;64755;45.590;5.286;2022-11-03T03:38:25;7.75;;;6.50;;
76057;SDS011;64755;45.590;5.286;2022-11-03T03:40:56;6.50;;;6.50;;
76057;SDS011;64755;45.590;5.286;2022-11-03T03:43:24;8.50;;;5.00;;
76057;SDS011;64755;45.590;5.286;2022-11-03T03:45:53;7.00;;;7.00;;
76057;SDS011;64755;45.590;5.286;2022-11-03T03:48:23;6.25;;;5.50;;
76057;SDS011;64755;45.590;5.286;2022-11-03T03:50:49;6.75;;;6.00;;
76057;SDS011;64755;45.590;5.286;2022-11-03T03:53:15;4.50;;;4.50;;
76057;SDS011;64755;45.590;5.286;2022-11-03T03:55:43;5.50;;;3.00;;
76057;SDS011;64755;45.590;5.286;2022-11-03T03:58:12;8.25;;;6.25;;
76057;SDS011;64755;45.590;5.286;2022-11-03T04:00:39;9.25;;;9.25;;
76057;SDS011;64755;45.590;5.286;2022-11-03T04:03:05;7.50;;;6.00;;
76057;SDS011;64755;45.590;5.286;2022-11-03T04:05:37;6.25;;;4.00;;
76057;SDS011;64755;45.590;5.286;2022-11-03T04:08:03;4.25;;;3.50;;
76057;SDS011;64755;45.590;5.286;2022-11-03T04:10:28;8.75;;;7.00;;
76057;SDS011;64755;45.590;5.286;2022-11-03T04:12:54;7.00;;;6.00;;
76057;SDS011;64755;45.590;5.286;2022-11-03T04:15:37;9.00;;;7.00;;
76057;SDS011;64755;45.590;5.286;2022-11-03T04:18:26;5.25;;;4.00;;
76057;SDS011;64755;45.590;5.286;2022-11-03T04:21:11;8.75;;;7.25;;
76057;SDS011;64755;45.590;5.286;2022-11-03T04:23:56;3.25;;;3.25;;
76057;SDS011;64755;45.590;5.286;2022-11-03T04:26:25;2.50;;;2.50;;
76057;SDS011;64755;45.590;5.286;2022-11-03T04:28:51;4.50;;;4.50;;
76057;SDS011;64755;45.590;5.286;2022-11-03T04:31:17;3.25;;;3.25;;
76057;SDS011;64755;45.590;5.286;2022-11-03T04:33:43;6.50;;;5.00;;
76057;SDS011;64755;45.590;5.286;2022-11-03T04:38:41;3.00;;;3.00;;
76057;SDS011;64755;45.590;5.286;2022-11-03T04:41:14;3.00;;;2.00;;
76057;SDS011;64755;45.590;5.286;2022-11-03T04:43:41;2.00;;;2.00;;
76057;SDS011;64755;45.590;5.286;2022-11-03T04:46:09;4.00;;;4.00;;
76057;SDS011;64755;45.590;5.286;2022-11-03T04:48:36;3.75;;;2.75;;
76057;SDS011;64755;45.590;5.286;2022-11-03T04:51:08;6.00;;;3.00;;
76057;SDS011;64755;45.590;5.286;2022-11-03T04:53:37;3.75;;;2.50;;
76057;SDS011;64755;45.590;5.286;2022-11-03T04:56:12;7.75;;;4.00;;
76057;SDS011;64755;45.590;5.286;2022-11-03T04:58:40;3.25;;;3.25;;
76057;SDS011;64755;45.590;5.286;2022-11-03T05:01:05;3.00;;;3.00;;
76057;SDS011;64755;45.590;5.286;2022-11-03T05:03:36;2.00;;;2.00;;
76057;SDS011;64755;45.590;5.286;2022-11-03T05:06:15;3.50;;;3.50;;
76057;SDS011;64755;45.590;5.286;2022-11-03T05:08:44;3.00;;;3.00;;
76057;SDS011;64755;45.590;5.286;2022-11-03T05:11:19;2.75;;;2.75;;
76057;SDS011;64755;45.590;5.286;2022-11-03T05:13:49;2.75;;;2.75;;
76057;SDS011;64755;45.590;5.286;2022-11-03T05:16:16;2.00;;;2.00;;
76057;SDS011;64755;45.590;5.286;2022-11-03T05:18:42;2.75;;;2.00;;
76057;SDS011;64755;45.590;5.286;2022-11-03T05:21:11;2.50;;;2.00;;
76057;SDS011;64755;45.590;5.286;2022-11-03T05:23:43;1.25;;;1.25;;
76057;SDS011;64755;45.590;5.286;2022-11-03T05:26:17;2.00;;;2.00;;
76057;SDS011;64755;45.590;5.286;2022-11-03T05:29:34;2.00;;;2.00;;
76057;SDS011;64755;45.590;5.286;2022-11-03T05:32:11;5.00;;;4.00;;
76057;SDS011;64755;45.590;5.286;2022-11-03T05:34:41;2.00;;;2.00;;
76057;SDS011;64755;45.590;5.286;2022-11-03T05:37:14;3.00;;;3.00;;
76057;SDS011;64755;45.590;5.286;2022-11-03T05:39:45;3.00;;;3.00;;
76057;SDS011;64755;45.590;5.286;2022-11-03T05:42:34;3.00;;;3.00;;
76057;SDS011;64755;45.590;5.286;2022-11-03T05:45:02;3.00;;;3.00;;
76057;SDS011;64755;45.590;5.286;2022-11-03T05:47:36;2.25;;;2.25;;
76057;SDS011;64755;45.590;5.286;2022-11-03T05:50:10;2.00;;;2.00;;
76057;SDS011;64755;45.590;5.286;2022-11-03T05:52:37;4.00;;;2.50;;
76057;SDS011;64755;45.590;5.286;2022-11-03T05:55:03;4.00;;;4.00;;
76057;SDS011;64755;45.590;5.286;2022-11-03T05:57:29;3.25;;;2.50;;
76057;SDS011;64755;45.590;5.286;2022-11-03T05:59:57;2.00;;;2.00;;
76057;SDS011;64755;45.590;5.286;2022-11-03T06:02:28;2.00;;;2.00;;
76057;SDS011;64755;45.590;5.286;2022-11-03T06:05:20;2.00;;;2.00;;
76057;SDS011;64755;45.590;5.286;2022-11-03T06:07:51;1.00;;;1.00;;
76057;SDS011;64755;45.590;5.286;2022-11-03T06:10:33;2.00;;;2.00;;
76057;SDS011;64755;45.590;5.286;2022-11-03T06:13:03;2.00;;;2.00;;
76057;SDS011;64755;45.590;5.286;2022-11-03T06:15:35;2.00;;;2.00;;
76057;SDS011;64755;45.590;5.286;2022-11-03T06:18:23;3.50;;;3.50;;
76057;SDS011;64755;45.590;5.286;2022-11-03T06:20:52;4.00;;;3.00;;
76057;SDS011;64755;45.590;5.286;2022-11-03T06:23:20;4.50;;;3.00;;
76057;SDS011;64755;45.590;5.286;2022-11-03T06:25:47;2.00;;;2.00;;
76057;SDS011;64755;45.590;5.286;2022-11-03T06:28:18;2.75;;;2.00;;
76057;SDS011;64755;45.590;5.286;2022-11-03T06:30:48;0.00;;;0.00;;
76057;SDS011;64755;45.590;5.286;2022-11-03T06:33:18;3.00;;;3.00;;
76057;SDS011;64755;45.590;5.286;2022-11-03T06:35:48;2.25;;;2.25;;
76057;SDS011;64755;45.590;5.286;2022-11-03T06:38:18;3.00;;;3.00;;
76057;SDS011;64755;45.590;5.286;2022-11-03T06:40:48;4.00;;;2.75;;
76057;SDS011;64755;45.590;5.286;2022-11-03T06:43:17;3.00;;;3.00;;
76057;SDS011;64755;45.590;5.286;2022-11-03T06:45:49;4.75;;;3.00;;
76057;SDS011;64755;45.590;5.286;2022-11-03T06:48:23;2.00;;;2.00;;
76057;SDS011;64755;45.590;5.286;2022-11-03T06:50:50;3.25;;;3.25;;
76057;SDS011;64755;45.590;5.286;2022-11-03T06:53:24;3.00;;;3.00;;
76057;SDS011;64755;45.590;5.286;2022-11-03T06:55:51;2.00;;;2.00;;
76057;SDS011;64755;45.590;5.286;2022-11-03T07:00:55;3.25;;;3.25;;
76057;SDS011;64755;45.590;5.286;2022-11-03T07:03:24;3.00;;;3.00;;
76057;SDS011;64755;45.590;5.286;2022-11-03T07:11:20;1.50;;;1.50;;
76057;SDS011;64755;45.590;5.286;2022-11-03T07:13:48;4.25;;;3.00;;
76057;SDS011;64755;45.590;5.286;2022-11-03T07:16:23;3.75;;;3.75;;
76057;SDS011;64755;45.590;5.286;2022-11-03T07:18:51;5.50;;;4.25;;
76057;SDS011;64755;45.590;5.286;2022-11-03T07:21:30;3.00;;;3.00;;
76057;SDS011;64755;45.590;5.286;2022-11-03T07:24:00;4.00;;;4.00;;
76057;SDS011;64755;45.590;5.286;2022-11-03T07:26:28;5.00;;;5.00;;
76057;SDS011;64755;45.590;5.286;2022-11-03T07:28:54;3.00;;;3.00;;
76057;SDS011;64755;45.590;5.286;2022-11-03T07:31:21;3.75;;;3.75;;
76057;SDS011;64755;45.590;5.286;2022-11-03T07:33:48;3.00;;;3.00;;
76057;SDS011;64755;45.590;5.286;2022-11-03T07:36:19;6.50;;;5.25;;
76057;SDS011;64755;45.590;5.286;2022-11-03T07:38:49;5.50;;;4.25;;
76057;SDS011;64755;45.590;5.286;2022-11-03T07:41:20;5.00;;;3.00;;
76057;SDS011;64755;45.590;5.286;2022-11-03T07:43:49;3.50;;;3.25;;
76057;SDS011;64755;45.590;5.286;2022-11-03T07:46:21;4.75;;;4.00;;
76057;SDS011;64755;45.590;5.286;2022-11-03T07:48:49;3.00;;;2.25;;
76057;SDS011;64755;45.590;5.286;2022-11-03T07:51:28;3.25;;;3.25;;
76057;SDS011;64755;45.590;5.286;2022-11-03T07:56:35;5.00;;;3.00;;
76057;SDS011;64755;45.590;5.286;2022-11-03T08:01:35;3.75;;;3.00;;
76057;SDS011;64755;45.590;5.286;2022-11-03T08:04:22;4.00;;;4.00;;
76057;SDS011;64755;45.590;5.286;2022-11-03T08:06:49;4.25;;;4.25;;
76057;SDS011;64755;45.590;5.286;2022-11-03T08:09:15;2.00;;;2.00;;
76057;SDS011;64755;45.590;5.286;2022-11-03T08:11:41;2.00;;;2.00;;
76057;SDS011;64755;45.590;5.286;2022-11-03T08:14:07;2.50;;;2.50;;
76057;SDS011;64755;45.590;5.286;2022-11-03T08:16:33;2.00;;;1.75;;
76057;SDS011;64755;45.590;5.286;2022-11-03T08:18:58;3.00;;;3.00;;
76057;SDS011;64755;45.590;5.286;2022-11-03T08:21:23;3.00;;;3.00;;
76057;SDS011;64755;45.590;5.286;2022-11-03T08:23:49;5.00;;;4.00;;
76057;SDS011;64755;45.590;5.286;2022-11-03T08:26:15;5.75;;;4.00;;
76057;SDS011;64755;45.590;5.286;2022-11-03T08:28:40;2.00;;;2.00;;
76057;SDS011;64755;45.590;5.286;2022-11-03T08:31:06;4.00;;;4.00;;
76057;SDS011;64755;45.590;5.286;2022-11-03T08:33:31;3.25;;;3.25;;
76057;SDS011;64755;45.590;5.286;2022-11-03T08:35:57;3.00;;;3.00;;
76057;SDS011;64755;45.590;5.286;2022-11-03T08:38:23;4.00;;;4.00;;
76057;SDS011;64755;45.590;5.286;2022-11-03T08:40:48;6.00;;;4.50;;
76057;SDS011;64755;45.590;5.286;2022-11-03T08:43:14;3.50;;;3.50;;
76057;SDS011;64755;45.590;5.286;2022-11-03T08:45:39;4.25;;;3.00;;
76057;SDS011;64755;45.590;5.286;2022-11-03T08:48:05;3.00;;;3.00;;
76057;SDS011;64755;45.590;5.286;2022-11-03T08:50:30;4.75;;;3.25;;
76057;SDS011;64755;45.590;5.286;2022-11-03T08:52:56;4.00;;;4.00;;
76057;SDS011;64755;45.590;5.286;2022-11-03T08:55:21;4.00;;;4.00;;
76057;SDS011;64755;45.590;5.286;2022-11-03T08:57:46;3.00;;;3.00;;
76057;SDS011;64755;45.590;5.286;2022-11-03T09:00:12;2.00;;;2.00;;
76057;SDS011;64755;45.590;5.286;2022-11-03T09:02:38;2.00;;;2.00;;
76057;SDS011;64755;45.590;5.286;2022-11-03T09:05:03;4.50;;;3.00;;
76057;SDS011;64755;45.590;5.286;2022-11-03T09:07:30;2.00;;;2.00;;
76057;SDS011;64755;45.590;5.286;2022-11-03T09:09:55;4.50;;;4.50;;
76057;SDS011;64755;45.590;5.286;2022-11-03T09:12:21;3.75;;;3.75;;
76057;SDS011;64755;45.590;5.286;2022-11-03T09:14:46;4.00;;;4.00;;
76057;SDS011;64755;45.590;5.286;2022-11-03T09:17:12;3.50;;;2.50;;
76057;SDS011;64755;45.590;5.286;2022-11-03T09:19:37;4.50;;;4.00;;
76057;SDS011;64755;45.590;5.286;2022-11-03T09:22:02;6.00;;;6.00;;
76057;SDS011;64755;45.590;5.286;2022-11-03T09:24:28;2.50;;;2.50;;
76057;SDS011;64755;45.590;5.286;2022-11-03T09:26:54;5.75;;;4.75;;
76057;SDS011;64755;45.590;5.286;2022-11-03T09:29:19;3.50;;;3.50;;
76057;SDS011;64755;45.590;5.286;2022-11-03T09:31:45;4.25;;;4.25;;
76057;SDS011;64755;45.590;5.286;2022-11-03T09:34:10;2.00;;;2.00;;
76057;SDS011;64755;45.590;5.286;2022-11-03T09:36:36;5.00;;;3.50;;
76057;SDS011;64755;45.590;5.286;2022-11-03T09:39:01;4.00;;;4.00;;
76057;SDS011;64755;45.590;5.286;2022-11-03T09:41:27;4.50;;;3.00;;
76057;SDS011;64755;45.590;5.286;2022-11-03T09:43:52;3.00;;;3.00;;
76057;SDS011;64755;45.590;5.286;2022-11-03T09:46:18;4.00;;;4.00;;
76057;SDS011;64755;45.590;5.286;2022-11-03T09:48:43;4.00;;;4.00;;
76057;SDS011;64755;45.590;5.286;2022-11-03T09:51:09;4.75;;;4.00;;
76057;SDS011;64755;45.590;5.286;2022-11-03T09:53:41;3.50;;;3.50;;
76057;SDS011;64755;45.590;5.286;2022-11-03T09:56:08;4.00;;;4.00;;
76057;SDS011;64755;45.590;5.286;2022-11-03T09:58:34;4.00;;;4.00;;
76057;SDS011;64755;45.590;5.286;2022-11-03T10:01:00;5.50;;;3.00;;
76057;SDS011;64755;45.590;5.286;2022-11-03T10:03:26;3.00;;;3.00;;
76057;SDS011;64755;45.590;5.286;2022-11-03T10:05:52;3.75;;;3.00;;
76057;SDS011;64755;45.590;5.286;2022-11-03T10:08:22;3.75;;;3.75;;
76057;SDS011;64755;45.590;5.286;2022-11-03T10:10:51;4.75;;;4.75;;
76057;SDS011;64755;45.590;5.286;2022-11-03T10:14:00;7.50;;;5.75;;
76057;SDS011;64755;45.590;5.286;2022-11-03T10:16:10;5.75;;;5.00;;
76057;SDS011;64755;45.590;5.286;2022-11-03T10:18:41;5.50;;;5.50;;
76057;SDS011;64755;45.590;5.286;2022-11-03T10:21:14;3.00;;;3.00;;
76057;SDS011;64755;45.590;5.286;2022-11-03T10:23:44;4.00;;;4.00;;
76057;SDS011;64755;45.590;5.286;2022-11-03T10:26:13;4.00;;;4.00;;
76057;SDS011;64755;45.590;5.286;2022-11-03T10:29:01;4.50;;;4.00;;
76057;SDS011;64755;45.590;5.286;2022-11-03T10:33:58;4.75;;;4.00;;
76057;SDS011;64755;45.590;5.286;2022-11-03T10:36:24;4.00;;;4.00;;
76057;SDS011;64755;45.590;5.286;2022-11-03T10:38:53;4.00;;;3.00;;
76057;SDS011;64755;45.590;5.286;2022-11-03T10:46:23;3.25;;;3.00;;
76057;SDS011;64755;45.590;5.286;2022-11-03T10:51:28;5.00;;;5.00;;
76057;SDS011;64755;45.590;5.286;2022-11-03T10:53:54;4.00;;;3.00;;
76057;SDS011;64755;45.590;5.286;2022-11-03T10:56:20;3.75;;;3.75;;
76057;SDS011;64755;45.590;5.286;2022-11-03T10:58:45;4.00;;;4.00;;
76057;SDS011;64755;45.590;5.286;2022-11-03T11:01:11;3.00;;;3.00;;
76057;SDS011;64755;45.590;5.286;2022-11-03T11:03:39;4.00;;;4.00;;
76057;SDS011;64755;45.590;5.286;2022-11-03T11:06:18;3.75;;;3.00;;
76057;SDS011;64755;45.590;5.286;2022-11-03T11:08:51;3.25;;;3.25;;
76057;SDS011;64755;45.590;5.286;2022-11-03T11:11:19;3.75;;;3.00;;
76057;SDS011;64755;45.590;5.286;2022-11-03T11:14:19;2.00;;;2.00;;
76057;SDS011;64755;45.590;5.286;2022-11-03T11:16:55;4.50;;;4.00;;
76057;SDS011;64755;45.590;5.286;2022-11-03T11:19:23;5.50;;;4.00;;
76057;SDS011;64755;45.590;5.286;2022-11-03T11:29:56;5.50;;;4.00;;
76057;SDS011;64755;45.590;5.286;2022-11-03T11:35:05;4.25;;;3.00;;
76057;SDS011;64755;45.590;5.286;2022-11-03T11:37:32;5.25;;;4.00;;
76057;SDS011;64755;45.590;5.286;2022-11-03T11:39:59;5.00;;;5.00;;
76057;SDS011;64755;45.590;5.286;2022-11-03T11:42:24;4.50;;;4.00;;
76057;SDS011;64755;45.590;5.286;2022-11-03T11:44:51;5.50;;;4.25;;
76057;SDS011;64755;45.590;5.286;2022-11-03T11:52:30;5.75;;;4.75;;
76057;SDS011;64755;45.590;5.286;2022-11-03T11:55:02;4.00;;;4.00;;
76057;SDS011;64755;45.590;5.286;2022-11-03T11:57:28;3.00;;;3.00;;
76057;SDS011;64755;45.590;5.286;2022-11-03T11:59:57;3.00;;;3.00;;
76057;SDS011;64755;45.590;5.286;2022-11-03T12:02:23;5.00;;;3.75;;
76057;SDS011;64755;45.590;5.286;2022-11-03T12:04:53;6.75;;;5.00;;
76057;SDS011;64755;45.590;5.286;2022-11-03T12:07:33;4.50;;;4.50;;
76057;SDS011;64755;45.590;5.286;2022-11-03T12:10:16;6.75;;;4.75;;
76057;SDS011;64755;45.590;5.286;2022-11-03T12:12:44;3.25;;;3.25;;
76057;SDS011;64755;45.590;5.286;2022-11-03T12:15:46;3.50;;;3.00;;
76057;SDS011;64755;45.590;5.286;2022-11-03T12:21:11;2.00;;;2.00;;
76057;SDS011;64755;45.590;5.286;2022-11-03T12:23:56;3.75;;;3.75;;
76057;SDS011;64755;45.590;5.286;2022-11-03T12:28:53;4.00;;;4.00;;
76057;SDS011;64755;45.590;5.286;2022-11-03T12:31:19;4.25;;;4.25;;
76057;SDS011;64755;45.590;5.286;2022-11-03T12:33:45;2.00;;;2.00;;
76057;SDS011;64755;45.590;5.286;2022-11-03T12:36:10;3.75;;;3.75;;
76057;SDS011;64755;45.590;5.286;2022-11-03T12:38:36;5.25;;;4.00;;
76057;SDS011;64755;45.590;5.286;2022-11-03T12:41:01;3.75;;;3.75;;
76057;SDS011;64755;45.590;5.286;2022-11-03T12:43:46;4.00;;;4.00;;
76057;SDS011;64755;45.590;5.286;2022-11-03T12:46:12;5.50;;;4.50;;
76057;SDS011;64755;45.590;5.286;2022-11-03T12:48:39;5.25;;;5.25;;
76057;SDS011;64755;45.590;5.286;2022-11-03T12:51:08;4.00;;;4.00;;
76057;SDS011;64755;45.590;5.286;2022-11-03T12:53:37;3.50;;;3.50;;
76057;SDS011;64755;45.590;5.286;2022-11-03T12:56:02;4.00;;;4.00;;
76057;SDS011;64755;45.590;5.286;2022-11-03T12:58:28;5.25;;;4.25;;
76057;SDS011;64755;45.590;5.286;2022-11-03T13:00:53;7.75;;;5.50;;
76057;SDS011;64755;45.590;5.286;2022-11-03T13:03:19;5.25;;;4.00;;
76057;SDS011;64755;45.590;5.286;2022-11-03T13:05:44;4.50;;;4.50;;
76057;SDS011;64755;45.590;5.286;2022-11-03T13:08:09;6.00;;;6.00;;
76057;SDS011;64755;45.590;5.286;2022-11-03T13:10:35;4.00;;;4.00;;
76057;SDS011;64755;45.590;5.286;2022-11-03T13:13:00;4.25;;;4.25;;
76057;SDS011;64755;45.590;5.286;2022-11-03T13:15:25;5.75;;;4.25;;
76057;SDS011;64755;45.590;5.286;2022-11-03T13:17:51;6.00;;;3.25;;
76057;SDS011;64755;45.590;5.286;2022-11-03T13:20:16;5.00;;;5.00;;
76057;SDS011;64755;45.590;5.286;2022-11-03T13:22:42;5.00;;;5.00;;
76057;SDS011;64755;45.590;5.286;2022-11-03T13:25:07;3.75;;;3.75;;
76057;SDS011;64755;45.590;5.286;2022-11-03T13:27:33;5.00;;;5.00;;
76057;SDS011;64755;45.590;5.286;2022-11-03T13:29:59;4.75;;;4.75;;
76057;SDS011;64755;45.590;5.286;2022-11-03T13:32:24;5.00;;;5.00;;
76057;SDS011;64755;45.590;5.286;2022-11-03T13:34:50;5.00;;;5.00;;
76057;SDS011;64755;45.590;5.286;2022-11-03T13:37:15;4.25;;;3.75;;
76057;SDS011;64755;45.590;5.286;2022-11-03T13:39:40;5.00;;;5.00;;
76057;SDS011;64755;45.590;5.286;2022-11-03T13:42:06;7.50;;;5.00;;
76057;SDS011;64755;45.590;5.286;2022-11-03T13:44:31;6.75;;;6.75;;
76057;SDS011;64755;45.590;5.286;2022-11-03T13:46:56;5.25;;;4.75;;
76057;SDS011;64755;45.590;5.286;2022-11-03T13:49:22;5.25;;;5.25;;
76057;SDS011;64755;45.590;5.286;2022-11-03T13:51:49;6.25;;;6.25;;
76057;SDS011;64755;45.590;5.286;2022-11-03T13:54:14;5.75;;;5.75;;
76057;SDS011;64755;45.590;5.286;2022-11-03T13:56:40;5.75;;;5.75;;
76057;SDS011;64755;45.590;5.286;2022-11-03T13:59:05;5.75;;;5.75;;
76057;SDS011;64755;45.590;5.286;2022-11-03T14:01:30;7.25;;;7.25;;
76057;SDS011;64755;45.590;5.286;2022-11-03T14:03:56;7.00;;;7.00;;
76057;SDS011;64755;45.590;5.286;2022-11-03T14:06:21;8.00;;;8.00;;
76057;SDS011;64755;45.590;5.286;2022-11-03T14:08:47;8.00;;;7.25;;
76057;SDS011;64755;45.590;5.286;2022-11-03T14:11:12;7.25;;;7.25;;
76057;SDS011;64755;45.590;5.286;2022-11-03T14:13:56;10.00;;;10.00;;
76057;SDS011;64755;45.590;5.286;2022-11-03T14:16:21;9.00;;;9.00;;
76057;SDS011;64755;45.590;5.286;2022-11-03T14:18:47;9.50;;;7.50;;
76057;SDS011;64755;45.590;5.286;2022-11-03T14:21:12;7.00;;;6.00;;
76057;SDS011;64755;45.590;5.286;2022-11-03T14:23:37;4.75;;;4.75;;
76057;SDS011;64755;45.590;5.286;2022-11-03T14:26:03;9.50;;;7.75;;
76057;SDS011;64755;45.590;5.286;2022-11-03T14:28:28;7.50;;;7.50;;
76057;SDS011;64755;45.590;5.286;2022-11-03T14:30:54;7.50;;;6.50;;
76057;SDS011;64755;45.590;5.286;2022-11-03T14:33:23;9.75;;;8.00;;
76057;SDS011;64755;45.590;5.286;2022-11-03T14:35:49;9.75;;;9.00;;
76057;SDS011;64755;45.590;5.286;2022-11-03T14:38:14;6.00;;;6.00;;
76057;SDS011;64755;45.590;5.286;2022-11-03T14:40:40;6.75;;;6.75;;
76057;SDS011;64755;45.590;5.286;2022-11-03T14:43:23;4.25;;;4.00;;
76057;SDS011;64755;45.590;5.286;2022-11-03T14:45:49;5.00;;;5.00;;
76057;SDS011;64755;45.590;5.286;2022-11-03T14:48:14;6.75;;;5.25;;
76057;SDS011;64755;45.590;5.286;2022-11-03T14:50:40;4.00;;;2.50;;
76057;SDS011;64755;45.590;5.286;2022-11-03T14:53:05;5.75;;;4.00;;
76057;SDS011;64755;45.590;5.286;2022-11-03T14:55:30;4.50;;;4.00;;
76057;SDS011;64755;45.590;5.286;2022-11-03T14:57:56;4.50;;;4.50;;
76057;SDS011;64755;45.590;5.286;2022-11-03T15:00:21;4.75;;;4.75;;
76057;SDS011;64755;45.590;5.286;2022-11-03T15:02:46;4.50;;;4.50;;
76057;SDS011;64755;45.590;5.286;2022-11-03T15:05:12;5.00;;;5.00;;
76057;SDS011;64755;45.590;5.286;2022-11-03T15:07:57;7.75;;;7.75;;
76057;SDS011;64755;45.590;5.286;2022-11-03T15:10:22;6.00;;;6.00;;
76057;SDS011;64755;45.590;5.286;2022-11-03T15:12:48;6.00;;;5.00;;
76057;SDS011;64755;45.590;5.286;2022-11-03T15:15:13;5.50;;;5.50;;
76057;SDS011;64755;45.590;5.286;2022-11-03T15:17:39;4.00;;;4.00;;
76057;SDS011;64755;45.590;5.286;2022-11-03T15:20:04;4.50;;;4.50;;
76057;SDS011;64755;45.590;5.286;2022-11-03T15:22:30;7.00;;;7.00;;
76057;SDS011;64755;45.590;5.286;2022-11-03T15:24:55;5.75;;;5.00;;
76057;SDS011;64755;45.590;5.286;2022-11-03T15:27:21;4.50;;;4.25;;
76057;SDS011;64755;45.590;5.286;2022-11-03T15:29:46;5.75;;;5.00;;
76057;SDS011;64755;45.590;5.286;2022-11-03T15:32:11;4.75;;;3.50;;
76057;SDS011;64755;45.590;5.286;2022-11-03T15:34:37;4.00;;;4.00;;
76057;SDS011;64755;45.590;5.286;2022-11-03T15:37:02;3.00;;;3.00;;
76057;SDS011;64755;45.590;5.286;2022-11-03T15:39:28;4.25;;;4.25;;
76057;SDS011;64755;45.590;5.286;2022-11-03T15:41:53;3.50;;;3.50;;
76057;SDS011;64755;45.590;5.286;2022-11-03T15:44:20;4.75;;;4.50;;
76057;SDS011;64755;45.590;5.286;2022-11-03T15:46:45;6.50;;;6.50;;
76057;SDS011;64755;45.590;5.286;2022-11-03T15:49:11;7.00;;;6.50;;
76057;SDS011;64755;45.590;5.286;2022-11-03T15:51:36;5.00;;;5.00;;
76057;SDS011;64755;45.590;5.286;2022-11-03T15:54:02;7.25;;;7.00;;
76057;SDS011;64755;45.590;5.286;2022-11-03T15:56:27;5.00;;;4.00;;
76057;SDS011;64755;45.590;5.286;2022-11-03T15:58:53;6.50;;;4.50;;
76057;SDS011;64755;45.590;5.286;2022-11-03T16:01:19;9.25;;;6.00;;